Overview Statistics Trail Chart Weather Telemetry Raw packets
 

This is the latest recevied weather packets stored in our database for station/object K4KMJ. If no packets are shown the sender has not sent any weather packets the latest 10 day(s).

<< 43 44 45 46 47 48 49 >>
Time Temp. Humidity Pressure Rain* Wind** Luminosity Snow
1788376908 28.33° C 95% 1016.4 hPa 0 mm - 192 W/m² -
1788376603 28.33° C 95% 1016.7 hPa 0 mm - 201 W/m² -
1788376297 28.33° C 95% 1016.7 hPa 0 mm - 204 W/m² -
1788375993 28.33° C 94% 1016.7 hPa 0 mm - 200 W/m² -
1788375688 28.33° C 94% 1016.7 hPa 0 mm - 195 W/m² -
1788375384 28.33° C 93% 1016.9 hPa 0 mm - 186 W/m² -
1788375080 28.89° C 92% 1016.8 hPa 0 mm - 187 W/m² -
1788374774 28.89° C 90% 1017 hPa 0 mm - 175 W/m² -
1788374470 28.89° C 90% 1016.8 hPa 0 mm - 162 W/m² -
1788374166 28.89° C 90% 1016.9 hPa 0 mm - 159 W/m² -
1788373863 29.44° C 89% 1016.9 hPa 0 mm - 105 W/m² -
1788373558 30° C 87% 1017.2 hPa 0 mm - 81 W/m² -
1788373255 30.56° C 84% 1017.1 hPa 0 mm - 163 W/m² -
1788372950 31.11° C 83% 1017.1 hPa 0 mm - 270 W/m² -
1788372650 31.11° C 83% 1017.1 hPa 0 mm - 518 W/m² -
1788372344 31.11° C 83% 1017.1 hPa 0 mm - 208 W/m² -
1788372040 31.67° C 81% 1017.2 hPa 0 mm - 209 W/m² -
1788371740 31.11° C 81% 1017.1 hPa 0 mm - 530 W/m² -
1788371436 31.11° C 81% 1017.1 hPa 0 mm - 800 W/m² -
1788371127 31.11° C 83% 1017.3 hPa 0 mm - 786 W/m² -
1788370849 31.11° C 84% 1017.2 hPa 0 mm - 825 W/m² -
1788370522 30° C 86% 1017.4 hPa 0 mm - 817 W/m² -
1788370221 30° C 86% 1017.4 hPa 0 mm - 154 W/m² -
1788369921 30.56° C 85% 1017.3 hPa 0 mm - 236 W/m² -
1788369616 30.56° C 88% 1017.4 hPa 0 mm - 798 W/m² -

* Rain latest hour (hover to see other rain measurements)
** Current wind speed in m/s (hover to see current wind gust speed)